Time;durP1;ratioP1;P1;durP2;ratioP2;P2;SDS_P1;SDS_P2;PMS_P1;PMS_P2;Temp;Humidity;BMP_temperature;BMP_pressure;BME280_temperature;BME280_humidity;BME280_pressure;Samples;Min_cycle;Max_cycle;Signal;HPM_P1;HPM_P2
2022/07/02 00:00:59;;;;;;;19.57;8.10;;;;;;;22.00;100.00;63154.78;5068253;28;20196;-74
2022/07/02 00:03:31;;;;;;;10.53;6.40;;;;;;;22.07;100.00;63167.56;5058367;28;20211;-75
2022/07/02 00:05:59;;;;;;;12.80;7.23;;;;;;;21.78;100.00;63136.13;5050003;28;20327;-74
2022/07/02 00:08:29;;;;;;;9.03;7.27;;;;;;;22.16;100.00;63172.13;5050202;28;20239;-75
2022/07/02 00:10:58;;;;;;;10.30;6.60;;;;;;;21.45;100.00;63103.00;5037221;28;20204;-74
2022/07/02 00:13:27;;;;;;;8.90;7.23;;;;;;;22.12;100.00;63172.97;5049918;28;20201;-75
2022/07/02 00:15:56;;;;;;;7.87;6.67;;;;;;;21.79;100.00;63132.03;5037113;28;20205;-75
2022/07/02 00:18:24;;;;;;;7.50;6.50;;;;;;;22.04;100.00;63164.31;5049838;28;20630;-74
2022/07/02 00:20:51;;;;;;;7.30;6.60;;;;;;;21.83;100.00;63141.59;5049956;28;20253;-74
2022/07/02 00:23:20;;;;;;;7.13;6.43;;;;;;;21.89;100.00;63148.06;5050325;28;20201;-75
2022/07/02 00:25:54;;;;;;;9.33;7.13;;;;;;;21.83;100.00;63142.09;5050216;28;20200;-74
2022/07/02 00:28:24;;;;;;;8.93;6.97;;;;;;;21.87;100.00;63143.31;5050522;28;20310;-74
2022/07/02 00:30:53;;;;;;;11.77;7.03;;;;;;;21.92;100.00;63151.31;5050498;28;20225;-73
2022/07/02 00:33:23;;;;;;;11.03;6.43;;;;;;;21.91;100.00;63144.50;5050256;28;20288;-74
2022/07/02 00:35:51;;;;;;;9.67;6.90;;;;;;;21.71;100.00;63128.56;5065535;28;20217;-75
2022/07/02 00:38:19;;;;;;;9.17;7.00;;;;;;;21.60;100.00;63117.19;5069681;28;20200;-74
2022/07/02 00:40:46;;;;;;;7.93;6.97;;;;;;;21.52;100.00;63108.00;5045227;28;20201;-74
2022/07/02 00:43:14;;;;;;;8.83;7.33;;;;;;;21.46;100.00;63101.50;5048426;28;20678;-74
2022/07/02 00:45:41;;;;;;;8.93;7.23;;;;;;;21.45;100.00;63097.81;5049990;28;20587;-74
2022/07/02 00:48:10;;;;;;;10.53;6.77;;;;;;;21.46;100.00;63101.50;5048541;28;20267;-75
2022/07/02 00:50:38;;;;;;;7.50;6.80;;;;;;;21.44;100.00;63097.28;5062939;28;20209;-74
2022/07/02 00:53:05;;;;;;;8.10;6.93;;;;;;;21.25;100.00;63073.59;5072453;28;20217;-75
2022/07/02 00:55:32;;;;;;;9.27;7.80;;;;;;;20.74;100.00;63024.66;5072772;28;20196;-74
2022/07/02 00:58:01;;;;;;;7.40;6.70;;;;;;;21.55;100.00;63111.78;5069261;28;20201;-76
2022/07/02 01:00:28;;;;;;;10.13;7.10;;;;;;;21.73;100.00;63130.72;5063659;28;20200;-74
2022/07/02 01:02:57;;;;;;;10.53;7.40;;;;;;;21.74;100.00;63131.81;5071802;28;20196;-74
2022/07/02 01:05:25;;;;;;;11.07;7.77;;;;;;;21.73;100.00;63130.72;5072396;28;20647;-75
2022/07/02 01:10:44;;;;;;;15.03;7.40;;;;;;;21.62;100.00;63118.81;5046050;28;20719;-75
2022/07/02 01:13:12;;;;;;;9.83;7.07;;;;;;;21.75;100.00;63132.91;5059559;28;20265;-74
2022/07/02 01:15:40;;;;;;;8.40;7.50;;;;;;;21.61;100.00;63120.34;5044332;28;20210;-74
2022/07/02 01:18:08;;;;;;;9.77;7.73;;;;;;;21.34;100.00;63080.72;5072616;28;20717;-74
2022/07/02 01:20:35;;;;;;;11.47;7.67;;;;;;;21.47;100.00;63102.59;5072068;28;20215;-74
2022/07/02 01:23:04;;;;;;;10.37;7.53;;;;;;;21.56;100.00;63110.28;5061352;28;20197;-76
2022/07/02 01:25:31;;;;;;;8.83;6.97;;;;;;;21.61;100.00;63117.75;5071945;28;20283;-74
2022/07/02 01:27:58;;;;;;;12.57;7.83;;;;;;;21.69;100.00;63126.41;5073172;28;20228;-74
2022/07/02 01:30:25;;;;;;;8.97;7.53;;;;;;;21.71;100.00;63128.56;5052521;28;20236;-74
2022/07/02 01:32:52;;;;;;;9.33;7.93;;;;;;;21.65;100.00;63119.47;5053352;28;20208;-75
2022/07/02 01:35:21;;;;;;;8.27;7.00;;;;;;;21.64;100.00;63121.53;5039679;28;20197;-74
2022/07/02 01:37:49;;;;;;;9.07;7.20;;;;;;;21.38;100.00;63092.84;5052760;28;20212;-74
2022/07/02 01:40:17;;;;;;;8.97;6.83;;;;;;;21.64;100.00;63115.78;5059856;28;20208;-74
2022/07/02 01:42:45;;;;;;;8.70;7.30;;;;;;;21.01;100.00;63059.06;5071329;28;20208;-74
2022/07/02 01:45:13;;;;;;;8.20;7.40;;;;;;;21.36;100.00;63090.66;5071870;28;20204;-74
2022/07/02 01:47:40;;;;;;;8.67;7.63;;;;;;;21.35;100.00;63089.59;5065378;28;20272;-73
2022/07/02 01:50:09;;;;;;;11.23;7.83;;;;;;;21.38;100.00;63090.25;5052088;28;20270;-75
2022/07/02 01:52:36;;;;;;;8.33;6.83;;;;;;;21.36;100.00;63091.22;5071935;28;20196;-76
2022/07/02 01:55:04;;;;;;;10.40;7.37;;;;;;;21.37;100.00;63089.16;5071962;28;20232;-74
2022/07/02 01:57:35;;;;;;;8.57;7.13;;;;;;;21.40;100.00;63095.00;5071414;28;20568;-73
2022/07/02 02:00:04;;;;;;;11.93;7.50;;;;;;;21.34;100.00;63083.31;5071289;28;20207;-75
2022/07/02 02:02:31;;;;;;;13.40;7.67;;;;;;;21.30;100.00;63081.59;5071474;28;20655;-74
2022/07/02 02:04:58;;;;;;;9.27;6.90;;;;;;;20.99;100.00;63049.09;5070833;28;20296;-74
2022/07/02 02:07:25;;;;;;;8.57;7.63;;;;;;;21.06;100.00;63058.19;5051880;28;20201;-74
2022/07/02 02:09:53;;;;;;;9.33;7.30;;;;;;;20.95;100.00;63047.34;5049693;28;20236;-75
2022/07/02 02:12:22;;;;;;;8.70;7.07;;;;;;;21.06;100.00;63058.19;5062150;28;20290;-75
2022/07/02 02:14:50;;;;;;;12.10;7.07;;;;;;;20.72;100.00;63016.75;5040587;28;20201;-74
2022/07/02 02:17:18;;;;;;;10.53;7.70;;;;;;;21.25;100.00;63076.72;5050416;28;20208;-75
2022/07/02 02:19:45;;;;;;;8.37;7.40;;;;;;;21.20;100.00;63073.34;5052311;28;20223;-74
2022/07/02 02:22:16;;;;;;;7.97;7.17;;;;;;;21.16;100.00;63064.38;5062376;28;20280;-75
2022/07/02 02:24:43;;;;;;;14.20;7.60;;;;;;;21.10;100.00;63062.53;5071382;28;20200;-74
2022/07/02 02:27:09;;;;;;;8.50;7.60;;;;;;;21.07;100.00;63059.28;5071574;28;20208;-76
2022/07/02 02:29:41;;;;;;;8.53;7.07;;;;;;;21.09;100.00;63056.28;5057869;28;20594;-74
2022/07/02 02:32:11;;;;;;;10.50;7.97;;;;;;;21.11;100.00;63058.44;5057935;28;20256;-73
2022/07/02 02:34:39;;;;;;;12.27;7.50;;;;;;;21.06;100.00;63053.56;5070425;28;20204;-75
2022/07/02 02:37:06;;;;;;;9.60;7.20;;;;;;;21.07;100.00;63054.09;5071371;28;20196;-73
2022/07/02 02:39:34;;;;;;;8.47;7.47;;;;;;;21.07;100.00;63054.63;5072689;28;20205;-74
2022/07/02 02:42:00;;;;;;;8.43;7.20;;;;;;;21.19;100.00;63072.28;5076964;28;20592;-75
2022/07/02 02:44:27;;;;;;;9.60;7.30;;;;;;;21.17;100.00;63067.53;5071690;28;20291;-74
2022/07/02 02:46:55;;;;;;;10.17;7.20;;;;;;;20.98;100.00;63053.19;5058055;28;20208;-76
2022/07/02 02:49:24;;;;;;;8.93;7.30;;;;;;;21.20;100.00;63070.75;5051611;28;20232;-74
2022/07/02 02:51:53;;;;;;;8.37;7.50;;;;;;;21.12;100.00;63064.69;5052253;28;20232;-74
2022/07/02 02:54:25;;;;;;;8.83;7.20;;;;;;;21.19;100.00;63072.81;5062630;28;20223;-74
2022/07/02 02:56:56;;;;;;;7.83;7.07;;;;;;;21.15;100.00;63067.94;5051463;28;21243;-75
2022/07/02 02:59:24;;;;;;;10.90;7.97;;;;;;;20.98;100.00;63045.44;5060936;28;20642;-74
2022/07/02 03:01:52;;;;;;;11.07;7.73;;;;;;;20.85;100.00;63036.00;5069087;28;20201;-73
2022/07/02 03:04:19;;;;;;;10.37;8.17;;;;;;;20.80;100.00;63031.13;5061308;28;20592;-76
2022/07/02 03:06:47;;;;;;;13.27;7.73;;;;;;;20.89;100.00;63035.69;5067639;28;20255;-73
2022/07/02 03:09:16;;;;;;;10.00;8.20;;;;;;;20.85;100.00;63030.81;5070627;28;20235;-74
2022/07/02 03:11:43;;;;;;;13.03;8.60;;;;;;;20.78;100.00;63023.78;5066218;28;20204;-74
2022/07/02 03:14:10;;;;;;;13.47;8.27;;;;;;;20.78;100.00;63028.97;5045135;28;20223;-74
2022/07/02 03:16:38;;;;;;;8.93;8.00;;;;;;;20.93;100.00;63040.00;5034442;28;20644;-75
2022/07/02 03:19:05;;;;;;;13.47;8.27;;;;;;;20.93;100.00;63040.00;5049372;28;20209;-75
2022/07/02 03:21:33;;;;;;;11.90;8.40;;;;;;;20.88;100.00;63039.78;5051972;28;20611;-74
2022/07/02 03:24:02;;;;;;;13.60;8.37;;;;;;;20.55;100.00;62998.34;5051428;28;20561;-74
2022/07/02 03:26:29;;;;;;;13.40;8.43;;;;;;;20.77;100.00;63022.69;5051818;28;20205;-75
2022/07/02 03:28:56;;;;;;;10.77;8.03;;;;;;;20.86;100.00;63032.44;5052883;28;20257;-74
2022/07/02 03:31:24;;;;;;;16.43;9.03;;;;;;;20.93;100.00;63039.47;5053630;28;20239;-75
2022/07/02 03:33:51;;;;;;;13.37;9.13;;;;;;;20.20;100.00;62966.75;5061931;28;20275;-73
2022/07/02 03:36:20;;;;;;;13.53;8.10;;;;;;;20.60;100.00;63009.50;5070574;28;20223;-74
2022/07/02 03:38:47;;;;;;;9.70;8.70;;;;;;;21.04;100.00;63056.59;5058965;28;20311;-75
2022/07/02 03:41:16;;;;;;;11.30;8.13;;;;;;;21.11;100.00;63058.97;5053745;28;20201;-73
2022/07/02 03:43:43;;;;;;;11.67;8.23;;;;;;;21.03;100.00;63056.03;5038803;28;20668;-74
2022/07/02 03:46:12;;;;;;;11.50;8.70;;;;;;;20.99;100.00;63051.69;5052321;28;20204;-74
2022/07/02 03:48:41;;;;;;;12.83;9.03;;;;;;;21.01;100.00;63048.69;5051851;28;20208;-74
2022/07/02 03:51:08;;;;;;;12.43;8.43;;;;;;;20.97;100.00;63048.97;5052150;28;20332;-74
2022/07/02 03:53:35;;;;;;;11.67;8.47;;;;;;;21.14;100.00;63064.25;5051259;28;20272;-74
2022/07/02 03:56:03;;;;;;;21.43;9.80;;;;;;;21.19;100.00;63072.28;5051248;28;20647;-74
2022/07/02 03:58:31;;;;;;;13.17;8.40;;;;;;;21.39;100.00;63088.75;5050436;28;20208;-74
2022/07/02 04:00:59;;;;;;;11.10;7.63;;;;;;;21.42;100.00;63091.97;5049786;28;20290;-74
2022/07/02 04:03:25;;;;;;;11.83;8.87;;;;;;;21.50;100.00;63105.81;5058704;28;20651;-73
2022/07/02 04:05:54;;;;;;;13.57;9.20;;;;;;;21.71;100.00;63123.38;5067619;28;20207;-75
2022/07/02 04:08:21;;;;;;;11.90;7.93;;;;;;;21.91;100.00;63150.25;5059790;28;20200;-75
2022/07/02 04:10:49;;;;;;;10.90;8.13;;;;;;;21.99;100.00;63158.91;5069162;28;20791;-75
2022/07/02 04:13:15;;;;;;;10.83;8.37;;;;;;;22.03;100.00;63157.50;5069667;28;20204;-76
2022/07/02 04:15:44;;;;;;;10.37;8.63;;;;;;;21.73;100.00;63128.13;5043725;28;20208;-75
2022/07/02 04:18:11;;;;;;;12.30;8.37;;;;;;;21.92;100.00;63148.72;5058258;28;20204;-76
2022/07/02 04:20:38;;;;;;;12.30;8.40;;;;;;;22.18;100.00;63171.16;5055522;28;20215;-75
2022/07/02 04:23:06;;;;;;;13.63;8.00;;;;;;;22.26;100.00;63188.16;5057309;28;20668;-73
2022/07/02 04:25:33;;;;;;;17.67;9.17;;;;;;;21.93;100.00;63146.69;5067413;28;20203;-73
2022/07/02 04:28:01;;;;;;;23.80;9.50;;;;;;;22.63;100.00;63228.25;5053824;28;20204;-74
2022/07/02 04:30:28;;;;;;;12.03;7.17;;;;;;;22.88;100.00;63249.09;5053911;28;20239;-73
2022/07/02 04:32:57;;;;;;;10.23;7.90;;;;;;;22.98;100.00;63260.44;5054108;28;20204;-74
2022/07/02 04:35:24;;;;;;;12.07;8.30;;;;;;;22.52;100.00;63216.31;5053888;28;20200;-74
2022/07/02 04:37:51;;;;;;;10.97;8.80;;;;;;;22.31;100.00;63190.97;5053947;28;20209;-74
2022/07/02 04:40:20;;;;;;;10.17;8.17;;;;;;;23.10;100.00;63276.06;5057084;28;20207;-75
2022/07/02 04:42:46;;;;;;;9.20;8.00;;;;;;;22.50;100.00;63211.56;5053890;28;20228;-74
2022/07/02 04:45:14;;;;;;;14.40;9.07;;;;;;;23.24;100.00;63288.09;5055418;28;20209;-75
2022/07/02 04:47:41;;;;;;;10.07;7.97;;;;;;;23.54;100.00;63320.09;5073279;28;20209;-75
2022/07/02 04:50:10;;;;;;;12.17;8.50;;;;;;;23.86;100.00;63357.97;5045822;28;20223;-74
2022/07/02 04:52:37;;;;;;;16.40;8.53;;;;;;;23.96;100.00;63368.81;5065061;28;20206;-75
2022/07/02 04:55:05;;;;;;;14.80;8.80;;;;;;;23.99;100.00;63369.44;5055212;28;20221;-74
2022/07/02 04:57:32;;;;;;;19.93;9.07;;;;;;;24.14;100.00;63388.38;5071707;28;20304;-75
2022/07/02 04:59:59;;;;;;;16.00;8.73;;;;;;;23.42;100.00;63313.38;5072576;28;20216;-76
2022/07/02 05:02:26;;;;;;;10.13;8.50;;;;;;;24.30;100.00;63407.78;5072503;28;20300;-75
2022/07/02 05:04:53;;;;;;;11.27;8.57;;;;;;;24.29;100.00;63402.03;5071875;28;20200;-74
2022/07/02 05:07:22;;;;;;;16.33;9.77;;;;;;;24.06;100.00;63382.28;5072681;28;20227;-76
2022/07/02 05:09:49;;;;;;;11.67;8.70;;;;;;;23.90;100.00;63359.16;5070371;28;20230;-74
2022/07/02 05:12:16;;;;;;;12.50;8.80;;;;;;;24.04;100.00;63379.56;5072558;28;20198;-74
2022/07/02 05:14:44;;;;;;;13.40;9.23;;;;;;;24.69;100.00;63444.38;5045239;28;20205;-74
2022/07/02 05:17:12;;;;;;;14.23;9.33;;;;;;;24.36;100.00;63408.53;5053955;28;20251;-75
2022/07/02 05:19:39;;;;;;;11.17;9.97;;;;;;;24.85;100.00;63461.75;5073037;28;20231;-73
2022/07/02 05:22:07;;;;;;;11.40;9.37;;;;;;;24.97;100.00;63477.38;5054963;28;20683;-74
2022/07/02 05:24:36;;;;;;;13.77;9.47;;;;;;;24.79;100.00;63455.25;5053157;28;20238;-75
2022/07/02 05:27:05;;;;;;;12.07;9.60;;;;;;;24.95;100.00;63480.44;5052934;28;20209;-74
2022/07/02 05:29:33;;;;;;;10.10;8.97;;;;;;;24.96;100.00;63469.03;5052454;28;20264;-74
2022/07/02 05:32:01;;;;;;;11.57;9.07;;;;;;;25.05;100.00;63480.88;5052868;28;20240;-74
2022/07/02 05:34:28;;;;;;;16.43;9.27;;;;;;;25.32;100.00;63514.84;5053109;28;20212;-75
2022/07/02 05:36:55;;;;;;;14.27;8.50;;;;;;;25.37;100.00;63522.91;5052323;28;20224;-73
2022/07/02 05:39:23;;;;;;;13.77;8.90;;;;;;;25.21;100.00;63503.44;5053434;28;20607;-74
2022/07/02 05:41:55;;;;;;;13.27;9.47;;;;;;;25.37;100.00;63522.91;5052887;28;20595;-74
2022/07/02 05:44:22;;;;;;;10.87;8.17;;;;;;;25.35;100.00;63516.06;5053469;28;20690;-74
2022/07/02 05:46:48;;;;;;;11.00;8.60;;;;;;;24.82;100.00;63458.50;5052496;28;20227;-74
2022/07/02 05:49:15;;;;;;;11.00;8.03;;;;;;;24.82;100.00;63463.69;5055473;28;20203;-75
2022/07/02 05:51:42;;;;;;;9.37;8.07;;;;;;;24.97;100.00;63480.00;5044968;28;20228;-75
2022/07/02 05:54:11;;;;;;;17.70;8.77;;;;;;;25.32;100.00;63514.84;5072247;28;20226;-74
2022/07/02 05:56:40;;;;;;;10.50;8.90;;;;;;;25.58;100.00;63546.25;5052419;28;20678;-75
2022/07/02 05:59:08;;;;;;;11.07;8.83;;;;;;;25.88;100.00;63578.88;5052550;28;20221;-73
2022/07/02 06:01:37;;;;;;;11.63;8.27;;;;;;;26.10;100.00;63596.50;5039716;28;20205;-74
2022/07/02 06:04:05;;;;;;;11.60;7.77;;;;;;;26.33;100.00;63621.47;5051969;28;20203;-74
2022/07/02 06:09:18;;;;;;;13.63;8.03;;;;;;;26.51;100.00;63641.06;5052556;28;20314;-75
2022/07/02 06:11:45;;;;;;;10.97;8.10;;;;;;;26.32;100.00;63620.41;5059316;28;20233;-75
2022/07/02 06:14:14;;;;;;;13.50;8.63;;;;;;;26.71;100.00;63665.97;5056471;28;20690;-74
2022/07/02 06:16:42;;;;;;;9.57;8.27;;;;;;;26.90;100.00;63688.72;5045516;28;20205;-74
2022/07/02 06:19:08;;;;;;;19.23;8.80;;;;;;;26.84;100.00;63682.19;5053635;28;20256;-74
2022/07/02 06:21:36;;;;;;;10.63;8.47;;;;;;;26.96;100.00;63690.03;5068410;28;20258;-76
2022/07/02 06:24:03;;;;;;;13.87;8.13;;;;;;;27.14;100.00;63709.59;5040376;28;20215;-76
2022/07/02 06:26:33;;;;;;;11.33;7.43;;;;;;;27.46;100.00;63744.44;5064214;28;20235;-76
2022/07/02 06:28:59;;;;;;;10.70;7.67;;;;;;;27.42;100.00;63737.47;5070754;28;20246;-74
2022/07/02 06:31:32;;;;;;;10.40;7.37;;;;;;;27.77;100.00;63782.31;5071486;28;20244;-76
2022/07/02 06:33:59;;;;;;;9.10;8.20;;;;;;;27.94;100.00;63795.56;5046557;28;20212;-75
2022/07/02 06:36:28;;;;;;;9.37;8.20;;;;;;;28.21;100.00;63825.00;5070331;28;20236;-74
2022/07/02 06:38:56;;;;;;;10.23;8.60;;;;;;;27.95;100.00;63796.69;5072226;28;20204;-74
2022/07/02 06:44:08;;;;;;;9.20;8.00;;;;;;;28.62;100.00;63872.28;5070382;28;20227;-75
2022/07/02 06:46:37;;;;;;;11.67;8.90;;;;;;;28.90;100.00;63900.16;5068424;28;20207;-74
2022/07/02 06:49:04;;;;;;;13.03;8.73;;;;;;;29.09;100.00;63923.50;5070266;28;20205;-73
2022/07/02 06:51:31;;;;;;;10.47;8.73;;;;;;;29.31;100.00;63946.41;5068860;28;20232;-76
2022/07/02 06:54:01;;;;;;;12.50;8.53;;;;;;;29.15;100.00;63924.25;5069833;28;20245;-75
2022/07/02 06:56:31;;;;;;;11.57;8.83;;;;;;;28.51;100.00;63862.91;5068927;28;20309;-75
2022/07/02 06:58:59;;;;;;;15.97;9.00;;;;;;;28.97;100.00;63905.19;5069646;28;20326;-74
2022/07/02 07:01:28;;;;;;;10.17;9.13;;;;;;;28.95;100.00;63908.25;5069233;28;20601;-75
2022/07/02 07:03:56;;;;;;;11.53;8.70;;;;;;;29.56;100.00;63976.28;5068203;28;20665;-75
2022/07/02 07:06:24;;;;;;;13.00;8.83;;;;;;;29.61;100.00;63979.09;5057870;28;20202;-76
2022/07/02 07:08:52;;;;;;;15.37;9.37;;;;;;;29.25;100.00;63937.22;5068026;28;20198;-76
2022/07/02 07:11:21;;;;;;;12.77;9.17;;;;;;;28.55;100.00;63861.47;5069752;28;20229;-76
2022/07/02 07:13:58;;;;;;;9.63;8.60;;;;;;;28.62;100.00;63869.66;5064155;28;20247;-75
2022/07/02 07:16:24;;;;;;;14.30;9.40;;;;;;;28.34;100.00;63839.16;5041921;28;20570;-75
2022/07/02 07:18:53;;;;;;;10.47;9.37;;;;;;;29.04;100.00;63915.41;5050527;28;20212;-74
2022/07/02 07:21:21;;;;;;;16.00;10.03;;;;;;;29.19;100.00;63931.25;5050658;28;20196;-75
2022/07/02 07:23:49;;;;;;;13.43;9.53;;;;;;;29.34;100.00;63947.56;5054400;28;20204;-74
2022/07/02 07:26:16;;;;;;;10.00;8.63;;;;;;;29.51;100.00;63965.56;5070734;28;20250;-75
2022/07/02 07:28:42;;;;;;;12.40;10.03;;;;;;;29.65;100.00;63986.09;5039809;28;20209;-74
2022/07/02 07:31:10;;;;;;;10.40;9.30;;;;;;;29.94;100.00;64012.47;5070177;28;20255;-73
2022/07/02 07:33:37;;;;;;;13.87;9.70;;;;;;;30.03;100.00;64024.91;5067209;28;20736;-75
2022/07/02 07:36:04;;;;;;;10.70;9.60;;;;;;;30.12;100.00;64034.72;5060170;28;20279;-76
2022/07/02 07:38:33;;;;;;;14.77;9.77;;;;;;;30.24;100.00;64047.81;5069771;28;20700;-76
2022/07/02 07:41:00;;;;;;;13.97;10.07;;;;;;;29.80;100.00;63994.59;5069593;28;20210;-74
2022/07/02 07:43:27;;;;;;;14.13;10.03;;;;;;;30.51;100.00;64074.09;5069455;28;20208;-74
2022/07/02 07:45:55;;;;;;;10.57;9.47;;;;;;;30.50;100.00;64073.03;5069866;28;20225;-75
2022/07/02 07:48:23;;;;;;;16.03;10.00;;;;;;;30.57;100.00;64080.66;5069339;28;20203;-73
2022/07/02 07:50:51;;;;;;;12.47;10.20;;;;;;;30.34;100.00;64058.75;5069251;28;20245;-75
2022/07/02 07:53:19;;;;;;;10.53;9.43;;;;;;;30.44;100.00;64067.03;5042075;28;20284;-74
2022/07/02 07:55:48;;;;;;;14.50;10.13;;;;;;;30.40;100.00;64059.47;5069994;28;20213;-75
2022/07/02 07:58:16;;;;;;;14.50;10.13;;;;;;;30.42;100.00;64064.28;5066494;28;20310;-74
2022/07/02 08:00:43;;;;;;;14.33;9.60;;;;;;;30.36;100.00;64057.75;5050146;28;20214;-74
2022/07/02 08:03:10;;;;;;;13.63;9.27;;;;;;;30.80;100.00;64111.56;5050164;28;20211;-74
2022/07/02 08:05:38;;;;;;;19.63;10.10;;;;;;;31.15;100.00;64143.44;5050381;28;20587;-75
2022/07/02 08:08:07;;;;;;;12.43;10.00;;;;;;;31.12;100.00;64140.13;5050313;28;20197;-74
2022/07/02 08:10:34;;;;;;;19.53;10.43;;;;;;;30.75;100.00;64100.28;5049749;28;20227;-75
2022/07/02 08:13:02;;;;;;;15.20;10.10;;;;;;;31.02;100.00;64131.84;5050020;28;20259;-75
2022/07/02 08:15:31;;;;;;;15.37;10.13;;;;;;;31.36;100.00;64161.06;5039538;28;20200;-74
2022/07/02 08:17:58;;;;;;;14.07;9.33;;;;;;;31.76;100.00;64204.22;5069838;28;20200;-74
2022/07/02 08:20:26;;;;;;;12.27;9.80;;;;;;;31.57;100.00;64191.94;5069323;28;20199;-72
2022/07/02 08:22:53;;;;;;;10.30;9.30;;;;;;;31.58;100.00;64190.94;5069676;28;20206;-74
2022/07/02 08:25:20;;;;;;;12.40;9.70;;;;;;;31.49;100.00;64180.56;5069689;28;20546;-76
2022/07/02 08:27:49;;;;;;;11.97;9.60;;;;;;;32.15;100.00;64252.66;5069301;28;20212;-75
2022/07/02 08:30:17;;;;;;;12.47;10.17;;;;;;;32.59;100.00;64299.63;5051098;28;20196;-74
2022/07/02 08:32:44;;;;;;;14.40;10.27;;;;;;;31.20;100.00;64146.25;5049717;28;20699;-74
2022/07/02 08:35:12;;;;;;;12.43;9.23;;;;;;;32.08;100.00;64245.00;5070348;28;20223;-74
2022/07/02 08:37:39;;;;;;;13.57;9.77;;;;;;;32.08;100.00;64241.81;5072123;28;20641;-74
2022/07/02 08:40:08;;;;;;;11.00;9.90;;;;;;;32.46;100.00;64288.09;5050048;28;20202;-73
2022/07/02 08:42:37;;;;;;;11.60;10.13;;;;;;;32.24;100.00;64264.56;5063167;28;20202;-73
2022/07/02 08:45:05;;;;;;;14.27;9.90;;;;;;;32.50;100.00;64290.34;5036889;28;20703;-73
2022/07/02 08:47:33;;;;;;;13.13;9.67;;;;;;;32.47;100.00;64289.16;5049670;28;20228;-74
2022/07/02 08:50:03;;;;;;;16.60;9.13;;;;;;;32.29;100.00;64267.94;5049893;28;20203;-74
2022/07/02 08:52:32;;;;;;;16.73;10.33;;;;;;;32.48;100.00;64288.16;5052834;28;20633;-73
2022/07/02 08:54:59;;;;;;;14.50;9.40;;;;;;;32.50;100.00;64293.00;5043934;28;20257;-74
2022/07/02 08:57:32;;;;;;;18.57;9.93;;;;;;;32.73;100.00;64315.50;5053848;28;20205;-74
2022/07/02 08:59:59;;;;;;;12.17;9.40;;;;;;;32.55;100.00;64297.91;5059351;28;20652;-75
2022/07/02 09:02:27;;;;;;;15.57;9.60;;;;;;;32.67;100.00;64308.38;5049612;28;20225;-75
2022/07/02 09:04:57;;;;;;;11.20;9.17;;;;;;;32.93;100.00;64334.16;5049946;28;20666;-77
2022/07/02 09:07:25;;;;;;;12.27;9.23;;;;;;;33.03;100.00;64348.31;5050514;28;20668;-74
2022/07/02 09:09:53;;;;;;;15.73;9.80;;;;;;;33.20;100.00;64369.50;5051744;28;20210;-75
2022/07/02 09:12:23;;;;;;;16.53;9.33;;;;;;;33.24;100.00;64370.72;5052983;28;20230;-74
2022/07/02 09:14:50;;;;;;;14.17;8.83;;;;;;;33.26;100.00;64372.91;5042122;28;20662;-75
2022/07/02 09:17:18;;;;;;;12.37;10.03;;;;;;;33.74;100.00;64424.84;5068527;28;20621;-75
2022/07/02 09:19:45;;;;;;;19.43;10.43;;;;;;;33.81;100.00;64433.06;5067261;28;20215;-75
2022/07/02 09:22:14;;;;;;;17.03;9.43;;;;;;;34.36;100.00;64489.50;5051393;28;20204;-73
2022/07/02 09:24:45;;;;;;;16.50;10.43;;;;;;;34.56;100.00;64514.06;5072411;28;20283;-75
2022/07/02 09:27:14;;;;;;;17.03;10.60;;;;;;;34.80;100.00;64540.31;5072391;28;20276;-75
2022/07/02 09:29:42;;;;;;;12.30;9.47;;;;;;;34.97;100.00;64558.97;5072119;28;20208;-73
2022/07/02 09:32:10;;;;;;;17.13;9.87;;;;;;;35.16;100.00;64579.19;5071917;28;20331;-75
2022/07/02 09:34:43;;;;;;;15.13;9.03;;;;;;;35.18;100.00;64581.94;5068435;28;20225;-74
2022/07/02 09:37:16;;;;;;;18.00;9.67;;;;;;;35.34;100.00;64599.47;5050766;28;20206;-74
2022/07/02 09:39:46;;;;;;;15.37;9.20;;;;;;;35.31;100.00;64601.50;5068809;28;20202;-74
2022/07/02 09:42:23;;;;;;;18.47;8.43;;;;;;;34.65;100.00;64526.56;5052726;28;20206;-76
2022/07/02 09:44:50;;;;;;;16.27;9.37;;;;;;;35.04;100.00;64569.25;5052860;28;20682;-74
2022/07/02 09:47:17;;;;;;;12.70;8.73;;;;;;;35.34;100.00;64599.47;5052907;28;20203;-74
2022/07/02 09:49:48;;;;;;;13.47;7.23;;;;;;;35.54;100.00;64620.84;5064465;28;20291;-74
2022/07/02 09:52:18;;;;;;;15.90;7.80;;;;;;;35.18;100.00;64581.94;5052480;28;20710;-74
2022/07/02 09:54:46;;;;;;;12.50;7.93;;;;;;;35.21;100.00;64584.69;5053041;28;20646;-74
2022/07/02 09:57:14;;;;;;;14.70;9.03;;;;;;;35.15;100.00;64578.66;5052844;28;20204;-75
2022/07/02 09:59:42;;;;;;;31.67;9.03;;;;;;;34.06;100.00;64457.22;5052379;28;20210;-74
2022/07/02 10:02:21;;;;;;;24.13;9.03;;;;;;;34.30;100.00;64485.59;5053149;28;20598;-75
2022/07/02 10:04:52;;;;;;;17.70;8.50;;;;;;;34.19;100.00;64473.56;5053326;28;20200;-76
2022/07/02 10:07:22;;;;;;;10.83;7.70;;;;;;;34.59;100.00;64514.69;5053346;28;20219;-74
2022/07/02 10:09:49;;;;;;;10.10;6.80;;;;;;;33.65;100.00;64418.19;5053263;28;20195;-76
2022/07/02 10:12:18;;;;;;;10.07;6.90;;;;;;;34.11;100.00;64462.16;5053025;28;20257;-75
2022/07/02 10:14:46;;;;;;;12.67;7.60;;;;;;;34.22;100.00;64476.84;5041005;28;20247;-75
2022/07/02 10:17:15;;;;;;;10.80;7.33;;;;;;;34.49;100.00;64506.41;5062395;28;20197;-74
2022/07/02 10:19:42;;;;;;;15.83;7.90;;;;;;;34.41;100.00;64500.28;5062965;28;20201;-74
2022/07/02 10:22:10;;;;;;;8.43;6.57;;;;;;;34.76;100.00;64535.94;5070506;28;20224;-75
2022/07/02 10:24:39;;;;;;;8.00;6.53;;;;;;;35.39;100.00;64610.25;5071150;28;20208;-74
2022/07/02 10:27:09;;;;;;;11.50;8.27;;;;;;;35.67;100.00;64635.09;5070743;28;20225;-74
2022/07/02 10:29:38;;;;;;;10.83;6.97;;;;;;;34.63;100.00;64519.59;5058448;28;20208;-74
2022/07/02 10:32:19;;;;;;;14.63;6.77;;;;;;;34.50;100.00;64507.50;5047352;28;20240;-72
2022/07/02 10:35:09;;;;;;;8.10;6.30;;;;;;;34.56;100.00;64519.91;5070615;28;20211;-77
2022/07/02 10:37:39;;;;;;;12.27;6.17;;;;;;;35.78;100.00;64649.25;5070721;28;20636;-74
2022/07/02 10:40:11;;;;;;;9.87;6.83;;;;;;;36.10;100.00;64679.00;5057160;28;20252;-75
2022/07/02 10:42:40;;;;;;;12.37;6.63;;;;;;;36.21;100.00;64699.00;5069722;28;20664;-76
2022/07/02 10:45:14;;;;;;;7.43;6.53;;;;;;;36.11;100.00;64682.75;5034808;28;20201;-74
2022/07/02 10:47:54;;;;;;;9.27;6.07;;;;;;;35.23;100.00;64587.44;5044161;28;20211;-73
2022/07/02 10:50:25;;;;;;;7.17;6.47;;;;;;;35.47;100.00;64616.38;5040490;28;20199;-75
2022/07/02 10:52:54;;;;;;;8.47;6.40;;;;;;;34.65;100.00;64523.91;5051201;28;20229;-76
2022/07/02 10:55:30;;;;;;;8.67;6.57;;;;;;;35.18;100.00;64581.94;5051239;28;20280;-76
2022/07/02 10:58:01;;;;;;;7.60;6.27;;;;;;;35.60;100.00;64627.97;5051597;28;20283;-75
2022/07/02 11:00:32;;;;;;;9.57;6.73;;;;;;;35.36;100.00;64606.94;5051070;28;20218;-76
2022/07/02 11:03:00;;;;;;;8.70;6.80;;;;;;;35.73;100.00;64641.09;5051244;28;20674;-74
2022/07/02 11:05:28;;;;;;;7.80;6.27;;;;;;;36.15;100.00;64687.13;5051117;28;20209;-74
2022/07/02 11:07:57;;;;;;;8.80;6.60;;;;;;;36.38;100.00;64715.00;5052003;28;20641;-74
2022/07/02 11:10:29;;;;;;;8.70;6.97;;;;;;;36.05;100.00;64676.72;5051026;28;20205;-76
2022/07/02 11:13:02;;;;;;;15.30;7.27;;;;;;;36.18;100.00;64687.78;5038330;28;20224;-74
2022/07/02 11:15:35;;;;;;;16.07;7.20;;;;;;;34.47;100.00;64510.03;5037390;28;20611;-76
2022/07/02 11:18:04;;;;;;;11.10;6.70;;;;;;;34.17;100.00;64474.56;5050823;28;20207;-74
2022/07/02 11:20:34;;;;;;;9.27;6.70;;;;;;;34.76;100.00;64535.94;5050808;28;20245;-75
2022/07/02 11:23:01;;;;;;;11.67;6.60;;;;;;;35.34;100.00;64604.22;5050429;28;20278;-75
2022/07/02 11:25:32;;;;;;;8.47;6.80;;;;;;;34.89;100.00;64550.19;5051027;28;20208;-75
2022/07/02 11:28:01;;;;;;;10.27;6.60;;;;;;;35.63;100.00;64631.25;5050974;28;20219;-74
2022/07/02 11:30:29;;;;;;;8.63;6.37;;;;;;;35.96;100.00;64669.50;5050769;28;20232;-74
2022/07/02 11:32:57;;;;;;;9.23;6.97;;;;;;;35.43;100.00;64603.47;5050452;28;20221;-74